Terminal Aerodrome Forecast
Issued by NWS

Home | Current Version | Previous Version | Graphics & Text | Print | Product List | Glossary On
Versions: 1 2 3 4 5 6 7 8 9 10 11 12 13 14 15 16 17
143
FTUS41 KCLE 150540
TAFFDY
TAF
KFDY 150540Z 1506/1606 19010KT P6SM SCT060 BKN110 WS020/21045KT
     FM150800 21015G25KT P6SM BKN030 BKN070
     FM151200 22020G30KT P6SM VCSH BKN025 OVC035
     FM151400 23022G35KT P6SM -SHRA OVC025
      TEMPO 1514/1516 26028G38KT 5SM -SHRA BKN015
     FM151700 28025G35KT P6SM OVC025
     FM152200 30015G25KT P6SM BKN035
     FM160000 30013KT P6SM SCT035=

USA.gov is the U.S. government's official web portal to all federal, state and local government web resources and services.